Dumas, Texas
Current Conditions -  °F | °C
As of 11:35 AM on Tuesday 21 Oct 2014 (Local Time) from KDUX Reporting Station
Clear Clear  
Wind Chill: 71°   Ceiling: Unl
Heat Index: 71°   Visibility: 10mi
Dew Point: 52°   Wind: 14mph
Humidity: 51%   Direction: 210°SSW
Pressure: 30.14"   Gusts: 18mph
Location:  35.85°N, 101.97°W
Report Text: KDUX 211635Z AUTO 21012G16KT 10SM CLR 22/11 A3014 RMK AO2 T02150110
Loading
Personal Weather Stations






























Interactive Weather Map
Tropical Storm Tracking
New forecast layout! Learn more

10-Day Weather Forecast

Advertisements
Track Severe Weather on mobile